sensor_id;sensor_type;location;lat;lon;timestamp;P1;durP1;ratioP1;P2;durP2;ratioP2
57535;SDS011;43361;49.790;8.960;2023-02-13T00:05:29;3.42;;;2.38;;
57535;SDS011;43361;49.790;8.960;2023-02-13T00:15:29;4.18;;;2.33;;
57535;SDS011;43361;49.790;8.960;2023-02-13T00:25:31;2.42;;;1.80;;
57535;SDS011;43361;49.790;8.960;2023-02-13T00:35:32;2.90;;;2.30;;
57535;SDS011;43361;49.790;8.960;2023-02-13T00:45:33;3.08;;;1.85;;
57535;SDS011;43361;49.790;8.960;2023-02-13T00:55:34;3.38;;;2.10;;
57535;SDS011;43361;49.790;8.960;2023-02-13T01:05:36;2.28;;;1.60;;
57535;SDS011;43361;49.790;8.960;2023-02-13T01:15:36;2.55;;;2.00;;
57535;SDS011;43361;49.790;8.960;2023-02-13T01:25:39;2.45;;;1.77;;
57535;SDS011;43361;49.790;8.960;2023-02-13T01:35:40;3.55;;;1.80;;
57535;SDS011;43361;49.790;8.960;2023-02-13T01:45:42;2.78;;;1.90;;
57535;SDS011;43361;49.790;8.960;2023-02-13T01:55:44;2.92;;;1.98;;
57535;SDS011;43361;49.790;8.960;2023-02-13T02:05:47;2.40;;;1.65;;
57535;SDS011;43361;49.790;8.960;2023-02-13T02:15:48;2.10;;;1.73;;
57535;SDS011;43361;49.790;8.960;2023-02-13T02:25:59;2.23;;;1.63;;
57535;SDS011;43361;49.790;8.960;2023-02-13T02:36:14;6.22;;;1.67;;
57535;SDS011;43361;49.790;8.960;2023-02-13T02:46:21;2.70;;;1.73;;
57535;SDS011;43361;49.790;8.960;2023-02-13T02:56:25;2.45;;;1.60;;
57535;SDS011;43361;49.790;8.960;2023-02-13T03:06:29;2.67;;;1.70;;
57535;SDS011;43361;49.790;8.960;2023-02-13T03:16:33;1.98;;;1.50;;
57535;SDS011;43361;49.790;8.960;2023-02-13T03:26:53;1.83;;;1.40;;
57535;SDS011;43361;49.790;8.960;2023-02-13T03:36:58;2.30;;;1.70;;
57535;SDS011;43361;49.790;8.960;2023-02-13T03:47:17;1.98;;;1.27;;
57535;SDS011;43361;49.790;8.960;2023-02-13T03:57:19;2.78;;;1.60;;
57535;SDS011;43361;49.790;8.960;2023-02-13T04:07:40;2.00;;;1.25;;
57535;SDS011;43361;49.790;8.960;2023-02-13T04:17:44;1.98;;;1.15;;
57535;SDS011;43361;49.790;8.960;2023-02-13T04:27:45;2.78;;;1.50;;
57535;SDS011;43361;49.790;8.960;2023-02-13T04:37:47;1.67;;;1.27;;
57535;SDS011;43361;49.790;8.960;2023-02-13T04:47:50;2.33;;;1.40;;
57535;SDS011;43361;49.790;8.960;2023-02-13T04:57:52;2.63;;;1.52;;
57535;SDS011;43361;49.790;8.960;2023-02-13T05:07:53;1.98;;;1.40;;
57535;SDS011;43361;49.790;8.960;2023-02-13T05:17:55;1.85;;;1.40;;
57535;SDS011;43361;49.790;8.960;2023-02-13T05:27:55;1.58;;;1.20;;
57535;SDS011;43361;49.790;8.960;2023-02-13T05:37:57;3.03;;;1.15;;
57535;SDS011;43361;49.790;8.960;2023-02-13T05:47:57;2.30;;;1.20;;
57535;SDS011;43361;49.790;8.960;2023-02-13T05:57:59;2.42;;;1.40;;
57535;SDS011;43361;49.790;8.960;2023-02-13T06:08:00;3.83;;;1.67;;
57535;SDS011;43361;49.790;8.960;2023-02-13T06:18:02;6.38;;;2.40;;
57535;SDS011;43361;49.790;8.960;2023-02-13T06:28:02;9.90;;;2.10;;
57535;SDS011;43361;49.790;8.960;2023-02-13T06:38:04;6.50;;;1.95;;
57535;SDS011;43361;49.790;8.960;2023-02-13T06:48:04;18.42;;;4.55;;
57535;SDS011;43361;49.790;8.960;2023-02-13T06:58:06;9.88;;;3.72;;
57535;SDS011;43361;49.790;8.960;2023-02-13T07:08:07;12.77;;;4.30;;
57535;SDS011;43361;49.790;8.960;2023-02-13T07:18:08;14.77;;;4.05;;
57535;SDS011;43361;49.790;8.960;2023-02-13T07:28:09;8.93;;;3.45;;
57535;SDS011;43361;49.790;8.960;2023-02-13T07:38:11;10.70;;;3.67;;
57535;SDS011;43361;49.790;8.960;2023-02-13T07:48:11;10.02;;;4.07;;
57535;SDS011;43361;49.790;8.960;2023-02-13T07:58:13;14.75;;;3.65;;
57535;SDS011;43361;49.790;8.960;2023-02-13T08:08:13;10.65;;;3.95;;
57535;SDS011;43361;49.790;8.960;2023-02-13T08:18:15;10.40;;;4.00;;
57535;SDS011;43361;49.790;8.960;2023-02-13T08:28:15;10.00;;;3.35;;
57535;SDS011;43361;49.790;8.960;2023-02-13T08:38:17;8.73;;;3.85;;
57535;SDS011;43361;49.790;8.960;2023-02-13T08:48:18;6.10;;;2.88;;
57535;SDS011;43361;49.790;8.960;2023-02-13T08:58:19;7.90;;;3.33;;
57535;SDS011;43361;49.790;8.960;2023-02-13T09:08:20;8.02;;;3.75;;
57535;SDS011;43361;49.790;8.960;2023-02-13T09:18:22;9.40;;;3.78;;
57535;SDS011;43361;49.790;8.960;2023-02-13T09:28:22;5.68;;;2.83;;
57535;SDS011;43361;49.790;8.960;2023-02-13T09:38:24;7.18;;;3.53;;
57535;SDS011;43361;49.790;8.960;2023-02-13T09:48:26;8.10;;;3.38;;
57535;SDS011;43361;49.790;8.960;2023-02-13T09:58:35;7.45;;;3.28;;
57535;SDS011;43361;49.790;8.960;2023-02-13T10:08:45;7.70;;;3.03;;
57535;SDS011;43361;49.790;8.960;2023-02-13T10:18:49;5.00;;;2.57;;
57535;SDS011;43361;49.790;8.960;2023-02-13T10:28:52;4.30;;;2.67;;
57535;SDS011;43361;49.790;8.960;2023-02-13T10:39:20;3.75;;;2.40;;
57535;SDS011;43361;49.790;8.960;2023-02-13T10:49:29;4.60;;;2.65;;
57535;SDS011;43361;49.790;8.960;2023-02-13T11:09:32;7.03;;;2.78;;
57535;SDS011;43361;49.790;8.960;2023-02-13T11:19:36;23.60;;;8.93;;
57535;SDS011;43361;49.790;8.960;2023-02-13T11:29:49;16.92;;;6.68;;
57535;SDS011;43361;49.790;8.960;2023-02-13T11:39:50;15.50;;;6.57;;
57535;SDS011;43361;49.790;8.960;2023-02-13T11:49:52;15.10;;;5.43;;
57535;SDS011;43361;49.790;8.960;2023-02-13T11:59:53;10.35;;;4.85;;
57535;SDS011;43361;49.790;8.960;2023-02-13T12:09:56;12.80;;;4.75;;
57535;SDS011;43361;49.790;8.960;2023-02-13T12:20:00;9.30;;;4.00;;
57535;SDS011;43361;49.790;8.960;2023-02-13T12:40:34;8.27;;;4.00;;
57535;SDS011;43361;49.790;8.960;2023-02-13T12:50:40;7.95;;;3.72;;
57535;SDS011;43361;49.790;8.960;2023-02-13T13:00:46;7.55;;;3.58;;
57535;SDS011;43361;49.790;8.960;2023-02-13T13:10:53;6.93;;;3.22;;
57535;SDS011;43361;49.790;8.960;2023-02-13T13:20:59;7.55;;;3.47;;
57535;SDS011;43361;49.790;8.960;2023-02-13T13:31:02;7.45;;;3.00;;
57535;SDS011;43361;49.790;8.960;2023-02-13T13:41:06;7.97;;;3.20;;
57535;SDS011;43361;49.790;8.960;2023-02-13T13:51:08;4.93;;;2.65;;
57535;SDS011;43361;49.790;8.960;2023-02-13T14:11:35;5.30;;;2.47;;
57535;SDS011;43361;49.790;8.960;2023-02-13T14:21:36;7.75;;;2.47;;
57535;SDS011;43361;49.790;8.960;2023-02-13T14:31:38;12.68;;;3.35;;
57535;SDS011;43361;49.790;8.960;2023-02-13T14:41:40;7.78;;;2.75;;
57535;SDS011;43361;49.790;8.960;2023-02-13T14:51:44;13.88;;;3.25;;
57535;SDS011;43361;49.790;8.960;2023-02-13T15:01:48;14.05;;;2.78;;
57535;SDS011;43361;49.790;8.960;2023-02-13T15:11:51;30.48;;;3.22;;
57535;SDS011;43361;49.790;8.960;2023-02-13T15:21:52;15.10;;;3.17;;
57535;SDS011;43361;49.790;8.960;2023-02-13T15:31:54;17.23;;;3.05;;
57535;SDS011;43361;49.790;8.960;2023-02-13T15:41:55;14.80;;;3.30;;
57535;SDS011;43361;49.790;8.960;2023-02-13T15:52:02;12.65;;;2.67;;
57535;SDS011;43361;49.790;8.960;2023-02-13T16:02:04;8.68;;;2.53;;
57535;SDS011;43361;49.790;8.960;2023-02-13T16:12:06;6.65;;;2.75;;
57535;SDS011;43361;49.790;8.960;2023-02-13T16:22:25;7.80;;;2.83;;
57535;SDS011;43361;49.790;8.960;2023-02-13T16:32:29;17.08;;;3.05;;
57535;SDS011;43361;49.790;8.960;2023-02-13T16:42:30;15.68;;;2.60;;
57535;SDS011;43361;49.790;8.960;2023-02-13T16:52:32;6.65;;;2.33;;
57535;SDS011;43361;49.790;8.960;2023-02-13T17:02:33;14.80;;;2.78;;
57535;SDS011;43361;49.790;8.960;2023-02-13T17:12:35;7.95;;;2.53;;
57535;SDS011;43361;49.790;8.960;2023-02-13T17:22:38;11.20;;;2.22;;
57535;SDS011;43361;49.790;8.960;2023-02-13T17:32:40;8.95;;;2.55;;
57535;SDS011;43361;49.790;8.960;2023-02-13T17:42:40;9.98;;;2.30;;
57535;SDS011;43361;49.790;8.960;2023-02-13T17:52:44;8.70;;;3.00;;
57535;SDS011;43361;49.790;8.960;2023-02-13T18:02:45;7.15;;;2.60;;
57535;SDS011;43361;49.790;8.960;2023-02-13T18:12:48;9.25;;;2.85;;
57535;SDS011;43361;49.790;8.960;2023-02-13T18:22:49;12.65;;;3.45;;
57535;SDS011;43361;49.790;8.960;2023-02-13T18:32:51;12.00;;;3.00;;
57535;SDS011;43361;49.790;8.960;2023-02-13T18:42:52;8.95;;;2.95;;
57535;SDS011;43361;49.790;8.960;2023-02-13T18:52:54;7.95;;;3.03;;
57535;SDS011;43361;49.790;8.960;2023-02-13T19:02:56;9.70;;;2.65;;
57535;SDS011;43361;49.790;8.960;2023-02-13T19:12:58;8.18;;;3.10;;
57535;SDS011;43361;49.790;8.960;2023-02-13T19:22:58;8.82;;;2.50;;
57535;SDS011;43361;49.790;8.960;2023-02-13T19:33:00;10.30;;;2.60;;
57535;SDS011;43361;49.790;8.960;2023-02-13T19:43:00;8.10;;;2.60;;
57535;SDS011;43361;49.790;8.960;2023-02-13T19:53:02;6.28;;;2.55;;
57535;SDS011;43361;49.790;8.960;2023-02-13T20:03:04;6.68;;;2.88;;
57535;SDS011;43361;49.790;8.960;2023-02-13T20:13:06;7.57;;;2.38;;
57535;SDS011;43361;49.790;8.960;2023-02-13T20:23:07;11.60;;;2.72;;
57535;SDS011;43361;49.790;8.960;2023-02-13T20:33:09;6.38;;;2.17;;
57535;SDS011;43361;49.790;8.960;2023-02-13T20:43:09;5.70;;;2.17;;
57535;SDS011;43361;49.790;8.960;2023-02-13T20:53:11;6.32;;;2.45;;
57535;SDS011;43361;49.790;8.960;2023-02-13T21:03:12;4.38;;;1.90;;
57535;SDS011;43361;49.790;8.960;2023-02-13T21:13:13;4.57;;;2.00;;
57535;SDS011;43361;49.790;8.960;2023-02-13T21:23:14;14.07;;;2.50;;
57535;SDS011;43361;49.790;8.960;2023-02-13T21:33:15;4.45;;;2.13;;
57535;SDS011;43361;49.790;8.960;2023-02-13T21:43:16;5.53;;;2.50;;
57535;SDS011;43361;49.790;8.960;2023-02-13T21:53:18;3.53;;;1.60;;
57535;SDS011;43361;49.790;8.960;2023-02-13T22:03:18;5.45;;;1.85;;
57535;SDS011;43361;49.790;8.960;2023-02-13T22:13:20;3.55;;;1.70;;
57535;SDS011;43361;49.790;8.960;2023-02-13T22:23:20;4.03;;;2.20;;
57535;SDS011;43361;49.790;8.960;2023-02-13T22:33:22;4.97;;;2.20;;
57535;SDS011;43361;49.790;8.960;2023-02-13T22:43:23;2.88;;;1.70;;
57535;SDS011;43361;49.790;8.960;2023-02-13T22:53:24;6.38;;;2.00;;
57535;SDS011;43361;49.790;8.960;2023-02-13T23:03:25;3.83;;;1.92;;
57535;SDS011;43361;49.790;8.960;2023-02-13T23:13:26;4.20;;;1.80;;
57535;SDS011;43361;49.790;8.960;2023-02-13T23:23:27;3.95;;;1.90;;
57535;SDS011;43361;49.790;8.960;2023-02-13T23:33:29;5.03;;;2.10;;
57535;SDS011;43361;49.790;8.960;2023-02-13T23:43:29;3.72;;;1.88;;
57535;SDS011;43361;49.790;8.960;2023-02-13T23:53:32;4.00;;;1.92;;
